x

Montauk Point -23 Nm Ssw Of Montauk Point, Ny (44017) Wave Buoy

8:50am - Thu 16th Aug 2018 All times are EDT. -4 hours from GMT.

  • Sig Wave height 2.6ft
  • Swell Direction
  • Peak Period 6s
  • Average Period 5s
  • Wind
    7mph, 7mph gusts
  • Sea Temp 76°f
  • Air Temp 76°f
  • Sea Pressure 1017mb
  • Montauk Point -23 Nm Ssw Of Montauk Point, Ny
  • Montauk Point -23 Nm Ssw Of Montauk Point, Ny

More Historic Weather Station data

Upgrade to MSW Pro to gain access to the past 30 days of data for over 8000 Wavebouys and Weather Stations around the globe.

Join

Comparision Forecast

View Surf forecast
   
Thu 08/16 8:50am 2.5ft 6s 5s 7 7 mph 1017mb 76f 76f
7:50am 2.5ft 7s 5s 4 7 mph 1016.8mb 76f 76f
6:50am 3.5ft 7s 5s 7 7 mph 1016.3mb 76f 76f
5:50am 3ft 7s 5s 9 11 mph 1016mb 76f 76f
4:50am 3ft 6s 5s 9 11 mph 1015.5mb 76f 76f
3:50am 3ft 7s 5s 11 13 mph 1015.1mb 76f 76f
2:50am 3.5ft 6s 5s 13 16 mph 1014.6mb 76f 77f
1:50am 3ft 6s 5s 16 18 mph 1014.6mb 76f 78f
12:50am 3ft 6s 5s 13 16 mph 1014.7mb 76f 78f
Wed 08/15 11:50pm 3ft 7s 5s 13 16 mph 1014.4mb 76f 78f
10:50pm 3ft 6s 5s 13 16 mph 1014.7mb 77f 78f
9:50pm 2.5ft 6s 4s 13 13 mph 1014.6mb 77f 78f
8:50pm 3.5ft 6s 5s 16 16 mph 1014mb 77f 78f
7:50pm 3.5ft 6s 5s 18 20 mph 1013mb 77f 78f
6:50pm 3.5ft 6s 5s 18 20 mph 1012.6mb 77f 79f
5:50pm 3.5ft 6s 5s 18 20 mph 1012.4mb 77f 79f
4:50pm 3.5ft 6s 5s 16 20 mph 1012.3mb 77f 78f
3:50pm 4ft 6s 5s 16 20 mph 1012.3mb 77f 77f
2:50pm 4.5ft 6s 5s 16 18 mph 1012.5mb 77f 77f
1:50pm 4.5ft 7s 5s 18 20 mph 1012.5mb 77f 76f
12:50pm 4.5ft 7s 5s 16 18 mph 1012.3mb 77f 75f
11:50am 4.5ft 7s 5s 16 20 mph 1011.9mb 77f 74f
10:50am 4.5ft 7s 5s 13 16 mph 1011.8mb 76f 74f
9:50am 4.5ft 6s 5s 16 18 mph 1011.6mb 76f 73f
8:50am 4.5ft 7s 5s 13 13 mph 1011.2mb 76f 73f
7:50am 4.5ft 7s 5s 18 20 mph 1011mb 76f 73f
6:50am 4.5ft 7s 5s 13 18 mph 1010.6mb 76f 73f
5:50am 4ft 7s 5s 16 20 mph 1010.2mb 76f 74f
4:50am 4.5ft 7s 5s 18 22 mph 1010mb 76f 74f
3:50am 4.5ft 7s 5s 16 18 mph 1010.1mb 76f 76f
2:50am 4ft 7s 5s 13 16 mph 1010.6mb 76f 76f
1:50am 4.5ft 7s 5s 16 18 mph 1010.9mb 76f 75f
12:50am 4.5ft 6s  -  20 22 mph 1010.9mb 76f 76f
Tue 08/14 11:50pm 4.5ft 6s 5s 18 22 mph 1011mb 76f 76f
10:50pm 4.5ft 6s 5s 18 20 mph 1010.9mb 77f 76f
9:50pm 4.5ft 6s 5s 18 20 mph 1011.2mb 77f 74f
8:50pm 4.5ft 6s 5s 18 22 mph 1011mb 77f 76f
7:50pm 4ft 6s 5s 18 20 mph 1011.1mb 77f 77f
6:50pm 3.5ft 7s 5s 18 20 mph 1010.7mb 77f 77f
3:50pm 3.5ft 7s 5s 13 16 mph 1011.4mb 77f 77f
2:50pm 3.5ft 6s 5s 9 11 mph 1011.8mb 77f 76f
1:50pm 3.5ft 7s 5s 7 9 mph 1012.3mb 76f 74f
12:50pm 4ft 7s 5s 9 11 mph 1012.3mb 76f 77f
11:50am 3.5ft 7s 5s 9 9 mph 1012.8mb 76f 77f
10:50am 3.5ft 7s 5s 9 11 mph 1012.8mb 75f 77f
9:50am 3.5ft 7s 5s 7 9 mph 1012.3mb 75f 76f
8:50am 3.5ft 7s 5s 9 11 mph 1012.5mb 75f 76f
7:50am 3.5ft 7s 5s 11 13 mph 1012.7mb 75f 77f
6:50am 3.5ft 7s 5s 9 11 mph 1012.7mb 76f 77f
5:50am 3ft 6s 5s 9 9 mph 1012.6mb 76f 77f
4:50am 3.5ft 5s 5s 7 7 mph 1012.4mb 76f 76f
3:50am 3.5ft 7s 5s 7 9 mph 1012.4mb 76f 76f
2:50am 3.5ft 7s 5s 2 4 mph 1012.6mb 76f 76f
1:50am 3.5ft 6s 5s 7 7 mph 1012.9mb 76f 77f
12:50am 3.5ft 7s 5s 7 7 mph 1013.3mb 76f 76f
Mon 08/13 11:50pm 3.5ft 7s 5s 7 7 mph 1013.4mb 75f 76f
10:50pm 3.5ft 7s 5s 7 9 mph 1013.4mb 75f 77f
9:50pm 3.5ft 7s 5s 9 11 mph 1013.3mb 75f 77f
8:50pm 3.5ft 7s 5s 7 9 mph 1013mb 75f 77f
7:50pm 3ft 5s 5s 9 11 mph 1012.7mb 75f 77f
5:50pm 3ft 5s 4s 11 13 mph 1012.7mb 75f 76f
4:50pm 3ft 5s 4s 11 13 mph 1013.1mb 75f 76f
3:50pm 3ft 5s 4s 9 11 mph 1013.2mb 75f 76f
2:50pm 3ft 5s 4s 13 16 mph 1013.7mb 75f 76f
1:50pm 3ft 5s 4s 11 13 mph 1014.2mb 75f 76f
12:50pm 3.5ft 5s 4s 13 16 mph 1014.7mb 76f 77f
11:50am 3.5ft 5s 4s 13 16 mph 1015mb 76f 77f
10:50am 3.5ft 5s 4s 16 18 mph 1015.4mb 76f 76f
9:50am 4ft 5s 4s 18 22 mph 1015.6mb 76f 75f
8:50am 4ft 5s 4s 20 22 mph 1015.7mb 76f 74f
6:50am 3.5ft 4s 4s 20 25 mph 1016.1mb 77f 75f
5:50am 3.5ft 4s 4s 22 27 mph 1016mb 77f 74f
4:50am 3.5ft 4s 4s 20 22 mph 1016.3mb 77f 75f
3:50am 3ft 6s 4s 18 20 mph 1016.5mb 77f 76f
2:50am 2.5ft 6s 4s 18 22 mph 1016.6mb 77f 75f
12:50am 2ft 5s 4s 11 13 mph 1017.9mb 77f 77f
Sun 08/12 10:50pm 2ft 5s 5s 7 7 mph 1017.7mb 77f 77f
9:50pm 2ft 5s 4s 7 9 mph 1018mb 77f 77f
8:50pm 2ft 5s 4s 7 7 mph 1017.4mb 77f 77f
7:50pm 2ft 5s 4s 7 9 mph 1017.2mb 77f 77f
6:50pm 2ft 5s 4s 7 7 mph 1017mb 78f 78f
4:50pm 2ft 5s 4s 9 11 mph 1016.9mb 78f 77f
3:50pm 2ft 5s 4s 9 9 mph 1017mb 78f 77f
2:50pm 2ft 6s 5s 11 13 mph 1017mb 78f 77f